Time;durP1;ratioP1;P1;durP2;ratioP2;P2;SDS_P1;SDS_P2;PMS_P1;PMS_P2;Temp;Humidity;BMP_temperature;BMP_pressure;BME280_temperature;BME280_humidity;BME280_pressure;Samples;Min_cycle;Max_cycle;Signal;HPM_P1;HPM_P2
2023/12/21 00:02:14;;;;;;;4.32;3.42;;;;;;;;;;5029435;28;19958;-77
2023/12/21 00:04:39;;;;;;;4.38;3.50;;;;;;;;;;5019593;28;20100;-77
2023/12/21 00:07:05;;;;;;;4.53;3.30;;;;;;;;;;5020839;28;20090;-78
2023/12/21 00:09:31;;;;;;;4.70;3.50;;;;;;;;;;5013392;28;20026;-79
2023/12/21 00:11:56;;;;;;;;;;;;;;;;;;5023412;28;20037;-77
2023/12/21 00:14:23;;;;;;;4.85;3.72;;;;;;;;;;5030878;28;19935;-77
2023/12/21 00:16:48;;;;;;;5.03;3.78;;;;;;;;;;5030797;28;20029;-78
2023/12/21 00:19:14;;;;;;;;;;;;;;;;;;5030287;28;20029;-77
2023/12/21 00:21:39;;;;;;;5.43;4.00;;;;;;;;;;5036609;28;19912;-78
2023/12/21 00:24:05;;;;;;;5.18;3.80;;;;;;;;;;5029594;28;20106;-78
2023/12/21 00:26:30;;;;;;;4.97;3.95;;;;;;;;;;5030388;28;20043;-77
2023/12/21 00:28:55;;;;;;;;;;;;;;;;;;5031080;28;20083;-78
2023/12/21 00:31:21;;;;;;;6.38;4.00;;;;;;;;;;5030938;28;19917;-78
2023/12/21 00:33:47;;;;;;;5.32;3.42;;;;;;;;;;5029291;28;20542;-78
2023/12/21 00:36:16;;;;;;;5.13;3.90;;;;;;;;;;5023772;28;20042;-78
2023/12/21 00:38:41;;;;;;;5.20;4.13;;;;;;;;;;5013835;28;20046;-78
2023/12/21 00:41:07;;;;;;;;;;;;;;;;;;5021052;28;20037;-78
2023/12/21 00:43:32;;;;;;;5.65;3.80;;;;;;;;;;5039510;28;19999;-78
2023/12/21 00:45:57;;;;;;;4.85;4.00;;;;;;;;;;5024138;28;20033;-77
2023/12/21 00:48:23;;;;;;;4.63;3.65;;;;;;;;;;5029916;28;20083;-78
2023/12/21 00:50:48;;;;;;;5.40;4.10;;;;;;;;;;5029058;28;20025;-78
2023/12/21 00:53:15;;;;;;;;;;;;;;;;;;5012318;28;20083;-77
2023/12/21 00:55:40;;;;;;;5.70;3.90;;;;;;;;;;5029189;28;19919;-76
2023/12/21 00:58:06;;;;;;;;;;;;;;;;;;5026689;28;20102;-76
2023/12/21 01:00:31;;;;;;;4.82;3.72;;;;;;;;;;5027086;28;19917;-77
2023/12/21 01:02:57;;;;;;;4.28;3.45;;;;;;;;;;5026609;28;20436;-77
2023/12/21 01:05:23;;;;;;;6.25;4.68;;;;;;;;;;5029143;28;20049;-77
2023/12/21 01:07:48;;;;;;;;;;;;;;;;;;5030673;28;20022;-77
2023/12/21 01:10:14;;;;;;;5.65;4.45;;;;;;;;;;5016833;28;19920;-77
2023/12/21 01:12:39;;;;;;;6.07;4.43;;;;;;;;;;5030463;28;20026;-77
2023/12/21 01:15:05;;;;;;;5.47;4.13;;;;;;;;;;5028834;28;20080;-77
2023/12/21 01:17:30;;;;;;;;;;;;;;;;;;5030880;28;20025;-77
2023/12/21 01:19:56;;;;;;;6.25;4.10;;;;;;;;;;5029789;28;19958;-77
2023/12/21 01:22:22;;;;;;;6.18;4.75;;;;;;;;;;5028964;28;20025;-77
2023/12/21 01:24:47;;;;;;;7.70;4.97;;;;;;;;;;5012526;28;20485;-77
2023/12/21 01:27:13;;;;;;;5.88;4.85;;;;;;;;;;5029076;28;20412;-78
2023/12/21 01:29:38;;;;;;;;;;;;;;;;;;5030536;28;20033;-77
2023/12/21 01:32:04;;;;;;;6.20;4.60;;;;;;;;;;5028911;28;19909;-77
2023/12/21 01:34:29;;;;;;;6.05;4.57;;;;;;;;;;5040838;28;20056;-77
2023/12/21 01:36:55;;;;;;;6.63;4.82;;;;;;;;;;5030257;28;20106;-76
2023/12/21 01:39:20;;;;;;;7.72;5.60;;;;;;;;;;5028722;28;20045;-76
2023/12/21 01:41:45;;;;;;;6.35;5.05;;;;;;;;;;5028814;28;20452;-76
2023/12/21 01:44:11;;;;;;;;;;;;;;;;;;5027489;28;20037;-76
2023/12/21 01:46:36;;;;;;;6.80;5.10;;;;;;;;;;5030124;28;19931;-77
2023/12/21 01:49:02;;;;;;;6.85;5.35;;;;;;;;;;5028419;28;20052;-78
2023/12/21 01:51:27;;;;;;;7.25;5.20;;;;;;;;;;5029197;28;20024;-78
2023/12/21 01:53:52;;;;;;;;;;;;;;;;;;5030139;28;20049;-78
2023/12/21 01:56:20;;;;;;;6.20;5.15;;;;;;;;;;5027601;28;19909;-77
2023/12/21 01:58:46;;;;;;;7.20;5.68;;;;;;;;;;5031983;28;20041;-77
2023/12/21 02:01:13;;;;;;;7.60;5.80;;;;;;;;;;5015645;28;20041;-78
2023/12/21 02:03:39;;;;;;;8.23;5.95;;;;;;;;;;5028016;28;20060;-76
2023/12/21 02:06:04;;;;;;;7.95;6.03;;;;;;;;;;5032235;28;20480;-78
2023/12/21 02:08:30;;;;;;;;;;;;;;;;;;5032597;28;20120;-77
2023/12/21 02:10:59;;;;;;;8.23;6.07;;;;;;;;;;5033334;28;19916;-77
2023/12/21 02:13:24;;;;;;;8.15;6.07;;;;;;;;;;5012339;28;20382;-78
2023/12/21 02:15:50;;;;;;;7.32;5.95;;;;;;;;;;5031554;28;20040;-78
2023/12/21 02:18:15;;;;;;;8.50;6.70;;;;;;;;;;5012423;28;20136;-78
2023/12/21 02:20:43;;;;;;;;;;;;;;;;;;5029949;28;20037;-78
2023/12/21 02:23:09;;;;;;;9.70;7.00;;;;;;;;;;5041686;28;20291;-78
2023/12/21 02:25:34;;;;;;;;;;;;;;;;;;5012977;28;20033;-78
2023/12/21 02:27:59;;;;;;;8.88;6.60;;;;;;;;;;5022787;28;19971;-78
2023/12/21 02:30:25;;;;;;;11.55;7.68;;;;;;;;;;5032909;28;20542;-77
2023/12/21 02:32:50;;;;;;;9.32;7.25;;;;;;;;;;5031776;28;20049;-77
2023/12/21 02:35:16;;;;;;;9.52;7.55;;;;;;;;;;5014781;28;20017;-77
2023/12/21 02:37:41;;;;;;;;;;;;;;;;;;5033322;28;20520;-77
2023/12/21 02:40:07;;;;;;;10.32;7.80;;;;;;;;;;5031967;28;19916;-77
2023/12/21 02:42:32;;;;;;;10.57;8.27;;;;;;;;;;5030423;28;20037;-77
2023/12/21 02:44:57;;;;;;;11.18;8.68;;;;;;;;;;5031166;28;20061;-77
2023/12/21 02:47:23;;;;;;;12.40;9.52;;;;;;;;;;5031347;28;20120;-77
2023/12/21 02:49:48;;;;;;;12.52;8.93;;;;;;;;;;5031490;28;20033;-78
2023/12/21 02:52:14;;;;;;;11.20;8.68;;;;;;;;;;5023410;28;20480;-77
2023/12/21 02:54:39;;;;;;;12.20;9.23;;;;;;;;;;5032702;28;20022;-77
2023/12/21 02:57:05;;;;;;;11.32;9.00;;;;;;;;;;5032506;28;20037;-75
2023/12/21 02:59:30;;;;;;;;;;;;;;;;;;5031642;28;20079;-77
2023/12/21 03:01:55;;;;;;;12.15;9.05;;;;;;;;;;5031759;28;19913;-77
2023/12/21 03:04:21;;;;;;;12.13;9.90;;;;;;;;;;5031267;28;20017;-77
2023/12/21 03:06:46;;;;;;;;;;;;;;;;;;5030636;28;20053;-77
2023/12/21 03:09:11;;;;;;;11.90;8.98;;;;;;;;;;5012425;28;19940;-77
2023/12/21 03:11:37;;;;;;;12.23;9.10;;;;;;;;;;5025599;28;20041;-78
2023/12/21 03:14:02;;;;;;;12.10;9.45;;;;;;;;;;5023048;28;20038;-78
2023/12/21 03:16:28;;;;;;;;;;;;;;;;;;5031385;28;20033;-78
2023/12/21 03:18:53;;;;;;;12.02;8.80;;;;;;;;;;5032289;28;20374;-78
2023/12/21 03:21:19;;;;;;;12.00;8.85;;;;;;;;;;5030852;28;20056;-77
2023/12/21 03:23:44;;;;;;;10.50;7.93;;;;;;;;;;5024808;28;20034;-78
2023/12/21 03:26:10;;;;;;;;;;;;;;;;;;5025893;28;20084;-78
2023/12/21 03:28:35;;;;;;;10.52;7.40;;;;;;;;;;5032239;28;19913;-78
2023/12/21 03:31:01;;;;;;;9.18;6.30;;;;;;;;;;5012938;28;20681;-78
2023/12/21 03:33:26;;;;;;;10.55;7.70;;;;;;;;;;5030510;28;20037;-78
2023/12/21 03:35:52;;;;;;;8.73;6.75;;;;;;;;;;5012718;28;20054;-78
2023/12/21 03:38:17;;;;;;;;;;;;;;;;;;5027176;28;20048;-78
2023/12/21 03:40:43;;;;;;;11.32;8.48;;;;;;;;;;5024257;28;20310;-78
2023/12/21 03:43:08;;;;;;;8.05;6.60;;;;;;;;;;5022690;28;20104;-78
2023/12/21 03:45:39;;;;;;;9.50;7.05;;;;;;;;;;5021882;28;20128;-78
2023/12/21 03:48:09;;;;;;;7.75;6.00;;;;;;;;;;5023770;28;20037;-78
2023/12/21 03:50:35;;;;;;;8.20;6.43;;;;;;;;;;5030934;28;20087;-78
2023/12/21 03:53:00;;;;;;;;;;;;;;;;;;5025426;28;20061;-78
2023/12/21 03:55:25;;;;;;;7.03;5.75;;;;;;;;;;5056786;28;20000;-79
2023/12/21 03:57:51;;;;;;;;;;;;;;;;;;5031055;28;20061;-76
2023/12/21 04:00:18;;;;;;;7.10;5.35;;;;;;;;;;5024260;28;20011;-78
2023/12/21 04:03:09;;;;;;;6.95;5.50;;;;;;;;;;5030499;28;20103;-76
2023/12/21 04:05:34;;;;;;;;;;;;;;;;;;5024698;28;20484;-76
2023/12/21 04:07:59;;;;;;;5.90;4.78;;;;;;;;;;5030988;28;19924;-77
2023/12/21 04:10:25;;;;;;;5.88;4.82;;;;;;;;;;5029744;28;20464;-77
2023/12/21 04:12:50;;;;;;;;;;;;;;;;;;5030386;28;20053;-77
2023/12/21 04:15:16;;;;;;;5.40;4.68;;;;;;;;;;5031007;28;19920;-78
2023/12/21 04:17:42;;;;;;;7.10;5.10;;;;;;;;;;5031027;28;20431;-77
2023/12/21 04:20:07;;;;;;;;;;;;;;;;;;5028025;28;20053;-77
2023/12/21 04:22:32;;;;;;;5.97;4.63;;;;;;;;;;5030975;28;19908;-77
2023/12/21 04:24:58;;;;;;;;;;;;;;;;;;5030041;28;20037;-77
2023/12/21 04:27:24;;;;;;;6.43;4.78;;;;;;;;;;5023085;28;20454;-77
2023/12/21 04:29:50;;;;;;;6.35;5.10;;;;;;;;;;5030781;28;20049;-78
2023/12/21 04:32:15;;;;;;;6.35;4.43;;;;;;;;;;5022581;28;20030;-78
2023/12/21 04:34:41;;;;;;;5.82;4.50;;;;;;;;;;5027889;28;20520;-78
2023/12/21 04:37:06;;;;;;;5.95;4.03;;;;;;;;;;5026389;28;20129;-78
2023/12/21 04:39:33;;;;;;;5.80;4.10;;;;;;;;;;5012148;28;20107;-78
2023/12/21 04:41:58;;;;;;;;;;;;;;;;;;5025930;28;20057;-78
2023/12/21 04:44:24;;;;;;;5.63;4.38;;;;;;;;;;5026626;28;19920;-78
2023/12/21 04:46:49;;;;;;;5.53;3.85;;;;;;;;;;5029050;28;20029;-77
2023/12/21 04:49:16;;;;;;;4.57;3.63;;;;;;;;;;5026983;28;20029;-77
2023/12/21 04:51:43;;;;;;;4.82;3.70;;;;;;;;;;5028854;28;20040;-76
2023/12/21 04:54:08;;;;;;;4.50;3.60;;;;;;;;;;5025097;28;20503;-79
2023/12/21 04:56:33;;;;;;;;;;;;;;;;;;5029575;28;20104;-77
2023/12/21 04:58:59;;;;;;;5.57;4.18;;;;;;;;;;5030562;28;19948;-77
2023/12/21 05:01:24;;;;;;;;;;;;;;;;;;5024677;28;20025;-78
2023/12/21 05:03:50;;;;;;;5.10;3.72;;;;;;;;;;5027102;28;19956;-76
2023/12/21 05:06:15;;;;;;;4.25;3.10;;;;;;;;;;5022160;28;20029;-78
2023/12/21 05:08:41;;;;;;;4.60;3.08;;;;;;;;;;5012058;28;20535;-78
2023/12/21 05:11:06;;;;;;;5.22;3.70;;;;;;;;;;5030295;28;20026;-77
2023/12/21 05:13:32;;;;;;;4.32;3.40;;;;;;;;;;5029019;28;20037;-77
2023/12/21 05:15:57;;;;;;;4.53;3.15;;;;;;;;;;5028807;28;20024;-76
2023/12/21 05:18:23;;;;;;;;;;;;;;;;;;5017472;28;20044;-76
2023/12/21 05:20:49;;;;;;;3.95;2.95;;;;;;;;;;5029712;28;19916;-78
2023/12/21 05:23:14;;;;;;;4.28;2.90;;;;;;;;;;5009508;28;20061;-76
2023/12/21 05:25:39;;;;;;;;;;;;;;;;;;5030653;28;20029;-76
2023/12/21 05:28:05;;;;;;;4.70;3.20;;;;;;;;;;5028485;28;20020;-76
2023/12/21 05:30:30;;;;;;;3.78;2.97;;;;;;;;;;5030621;28;20017;-78
2023/12/21 05:32:56;;;;;;;;;;;;;;;;;;5034586;28;20033;-76
2023/12/21 05:35:21;;;;;;;4.00;3.00;;;;;;;;;;5027889;28;20023;-75
2023/12/21 05:37:46;;;;;;;3.83;2.88;;;;;;;;;;5032626;28;20121;-76
2023/12/21 05:40:12;;;;;;;4.45;2.50;;;;;;;;;;5012985;28;20037;-77
2023/12/21 05:42:38;;;;;;;3.40;2.50;;;;;;;;;;5027593;28;20041;-77
2023/12/21 05:45:03;;;;;;;;;;;;;;;;;;5023450;28;20124;-77
2023/12/21 05:47:28;;;;;;;3.42;2.50;;;;;;;;;;5032202;28;19917;-77
2023/12/21 05:49:54;;;;;;;;;;;;;;;;;;5034472;28;20036;-77
2023/12/21 05:52:19;;;;;;;3.83;2.40;;;;;;;;;;5033474;28;19912;-77
2023/12/21 05:54:44;;;;;;;;;;;;;;;;;;5016646;28;20025;-77
2023/12/21 05:57:13;;;;;;;3.70;2.20;;;;;;;;;;5033129;28;19920;-77
2023/12/21 05:59:39;;;;;;;3.20;2.22;;;;;;;;;;5016577;28;20028;-76
2023/12/21 06:02:04;;;;;;;3.70;2.72;;;;;;;;;;5029776;28;20030;-77
2023/12/21 06:04:30;;;;;;;;;;;;;;;;;;5033104;28;20105;-77
2023/12/21 06:06:56;;;;;;;3.45;2.47;;;;;;;;;;5033363;28;19995;-77
2023/12/21 06:09:21;;;;;;;3.33;2.40;;;;;;;;;;5032495;28;20076;-77
2023/12/21 06:11:47;;;;;;;3.20;2.17;;;;;;;;;;5015638;28;20439;-77
2023/12/21 06:14:12;;;;;;;;;;;;;;;;;;5034111;28;20052;-76
2023/12/21 06:16:38;;;;;;;3.15;2.10;;;;;;;;;;5030433;28;20308;-77
2023/12/21 06:19:09;;;;;;;3.83;2.17;;;;;;;;;;5012134;28;20033;-76
2023/12/21 06:21:37;;;;;;;3.78;2.28;;;;;;;;;;5030392;28;20037;-77
2023/12/21 06:24:03;;;;;;;3.25;2.10;;;;;;;;;;5033199;28;20025;-77
2023/12/21 06:26:29;;;;;;;3.22;2.20;;;;;;;;;;5032783;28;20047;-78
2023/12/21 06:28:54;;;;;;;2.97;2.28;;;;;;;;;;5033179;28;20040;-79
2023/12/21 06:31:20;;;;;;;;;;;;;;;;;;5033448;28;20021;-78
2023/12/21 06:33:45;;;;;;;2.92;1.85;;;;;;;;;;5032960;28;19947;-77
2023/12/21 06:36:10;;;;;;;3.45;2.55;;;;;;;;;;5015181;28;20752;-78
2023/12/21 06:38:36;;;;;;;2.65;1.95;;;;;;;;;;5023430;28;20040;-78
2023/12/21 06:41:01;;;;;;;;;;;;;;;;;;5015315;28;20420;-79
2023/12/21 06:43:27;;;;;;;4.30;2.10;;;;;;;;;;5031021;28;20016;-78
2023/12/21 06:45:52;;;;;;;4.50;2.17;;;;;;;;;;5031028;28;20037;-76
2023/12/21 06:48:18;;;;;;;;;;;;;;;;;;5031744;28;20021;-77
2023/12/21 06:50:43;;;;;;;3.55;2.22;;;;;;;;;;5032287;28;20411;-77
2023/12/21 06:53:15;;;;;;;3.33;2.40;;;;;;;;;;5015212;28;20017;-77
2023/12/21 06:55:41;;;;;;;3.83;2.15;;;;;;;;;;5032431;28;20409;-76
2023/12/21 06:58:06;;;;;;;;;;;;;;;;;;5033324;28;20022;-77
2023/12/21 07:00:31;;;;;;;3.45;2.20;;;;;;;;;;5031206;28;19917;-80
2023/12/21 07:02:58;;;;;;;3.10;2.10;;;;;;;;;;5023873;28;20048;-78
2023/12/21 07:05:23;;;;;;;2.88;2.10;;;;;;;;;;5032084;28;20045;-77
2023/12/21 07:07:48;;;;;;;;;;;;;;;;;;5032740;28;20029;-77
2023/12/21 07:10:14;;;;;;;2.33;1.70;;;;;;;;;;5032053;28;19913;-77
2023/12/21 07:12:39;;;;;;;3.13;1.70;;;;;;;;;;5030841;28;20083;-78
2023/12/21 07:15:05;;;;;;;2.70;1.80;;;;;;;;;;5021352;28;20033;-77
2023/12/21 07:17:30;;;;;;;3.05;1.70;;;;;;;;;;5032063;28;20087;-77
2023/12/21 07:19:56;;;;;;;3.00;1.90;;;;;;;;;;5031238;28;20393;-77
2023/12/21 07:22:21;;;;;;;3.28;2.17;;;;;;;;;;5032498;28;20042;-77
2023/12/21 07:24:47;;;;;;;;;;;;;;;;;;5029706;28;20037;-77
2023/12/21 07:27:12;;;;;;;2.92;1.95;;;;;;;;;;5031753;28;19909;-78
2023/12/21 07:29:38;;;;;;;2.75;1.77;;;;;;;;;;5032028;28;20057;-77
2023/12/21 07:32:03;;;;;;;;;;;;;;;;;;5032580;28;20052;-78
2023/12/21 07:34:29;;;;;;;3.00;2.00;;;;;;;;;;5052548;28;19913;-77
2023/12/21 07:36:55;;;;;;;2.63;1.88;;;;;;;;;;5025587;28;20144;-78
2023/12/21 07:39:20;;;;;;;2.83;1.90;;;;;;;;;;5032050;28;20057;-78
2023/12/21 07:41:46;;;;;;;2.58;1.70;;;;;;;;;;5022550;28;20033;-79
2023/12/21 07:44:11;;;;;;;;;;;;;;;;;;5019505;28;20056;-78
2023/12/21 07:46:36;;;;;;;3.28;1.83;;;;;;;;;;5021977;28;19962;-78
2023/12/21 07:49:02;;;;;;;2.83;1.92;;;;;;;;;;5016199;28;20111;-78
2023/12/21 07:51:27;;;;;;;;;;;;;;;;;;5031931;28;20029;-78
2023/12/21 07:53:53;;;;;;;2.40;1.60;;;;;;;;;;5030744;28;20418;-77
2023/12/21 07:56:18;;;;;;;;;;;;;;;;;;5031642;28;20497;-78
2023/12/21 07:58:43;;;;;;;4.32;1.88;;;;;;;;;;5031048;28;19913;-77
2023/12/21 08:01:09;;;;;;;3.33;1.55;;;;;;;;;;5030355;28;20472;-79
2023/12/21 08:03:34;;;;;;;;;;;;;;;;;;5013443;28;20037;-78
2023/12/21 08:06:00;;;;;;;3.03;1.90;;;;;;;;;;5031444;28;19916;-79
2023/12/21 08:08:25;;;;;;;2.72;2.17;;;;;;;;;;5031054;28;20165;-77
2023/12/21 08:10:51;;;;;;;3.85;1.98;;;;;;;;;;5029992;28;20112;-78
2023/12/21 08:13:16;;;;;;;4.72;1.70;;;;;;;;;;5030194;28;20071;-78
2023/12/21 08:15:41;;;;;;;2.95;1.92;;;;;;;;;;5030039;28;20075;-78
2023/12/21 08:18:09;;;;;;;3.88;2.15;;;;;;;;;;5029675;28;20420;-78
2023/12/21 08:20:36;;;;;;;1.80;1.25;;;;;;;;;;5010161;28;20378;-78
2023/12/21 08:23:03;;;;;;;2.47;1.70;;;;;;;;;;5028952;28;20108;-78
2023/12/21 08:25:31;;;;;;;2.25;1.50;;;;;;;;;;5028829;28;20029;-78
2023/12/21 08:27:57;;;;;;;2.83;1.45;;;;;;;;;;5030903;28;20041;-78
2023/12/21 08:30:22;;;;;;;;;;;;;;;;;;5030060;28;20025;-78
2023/12/21 08:32:48;;;;;;;2.88;1.60;;;;;;;;;;5027384;28;19914;-78
2023/12/21 08:35:13;;;;;;;;;;;;;;;;;;5028786;28;20021;-79
2023/12/21 08:37:38;;;;;;;3.53;1.98;;;;;;;;;;5030910;28;19932;-78
2023/12/21 08:40:04;;;;;;;2.47;1.60;;;;;;;;;;5031053;28;20037;-78
2023/12/21 08:42:30;;;;;;;;;;;;;;;;;;5028691;28;20504;-79
2023/12/21 08:44:58;;;;;;;2.63;1.40;;;;;;;;;;5020099;28;19984;-78
2023/12/21 08:47:23;;;;;;;4.85;1.58;;;;;;;;;;5028816;28;20408;-78
2023/12/21 08:49:48;;;;;;;;;;;;;;;;;;5029899;28;20021;-78
2023/12/21 08:52:14;;;;;;;3.65;1.52;;;;;;;;;;5030114;28;19920;-78
2023/12/21 08:54:39;;;;;;;;;;;;;;;;;;5020731;28;20032;-78
2023/12/21 08:57:05;;;;;;;1.77;1.23;;;;;;;;;;5030442;28;20303;-78
2023/12/21 08:59:30;;;;;;;1.85;1.20;;;;;;;;;;5029435;28;20029;-79
2023/12/21 09:01:56;;;;;;;3.85;1.38;;;;;;;;;;5030456;28;20034;-77
2023/12/21 09:04:21;;;;;;;2.75;1.30;;;;;;;;;;5017511;28;20107;-79
2023/12/21 09:06:47;;;;;;;;;;;;;;;;;;5024600;28;20038;-77
2023/12/21 09:09:13;;;;;;;2.72;1.60;;;;;;;;;;5034380;28;19920;-78
2023/12/21 09:11:39;;;;;;;2.47;1.50;;;;;;;;;;5034432;28;20498;-78
2023/12/21 09:14:04;;;;;;;;;;;;;;;;;;5033776;28;20104;-78
2023/12/21 09:16:30;;;;;;;2.75;1.50;;;;;;;;;;5034486;28;19913;-78
2023/12/21 09:18:55;;;;;;;;;;;;;;;;;;5031365;28;20140;-78
2023/12/21 09:21:21;;;;;;;2.78;1.30;;;;;;;;;;5033058;28;19967;-78
2023/12/21 09:23:46;;;;;;;2.47;0.93;;;;;;;;;;5029435;28;20021;-78
2023/12/21 09:26:11;;;;;;;;;;;;;;;;;;5034711;28;20033;-78
2023/12/21 09:28:37;;;;;;;3.22;1.30;;;;;;;;;;5024042;28;19967;-78
2023/12/21 09:31:03;;;;;;;2.67;1.40;;;;;;;;;;5033018;28;20037;-79
2023/12/21 09:33:31;;;;;;;;;;;;;;;;;;5033183;28;20025;-77
2023/12/21 09:35:58;;;;;;;2.35;1.13;;;;;;;;;;5028852;28;20344;-78
2023/12/21 09:38:23;;;;;;;3.17;1.70;;;;;;;;;;5028624;28;20069;-78
2023/12/21 09:40:49;;;;;;;2.30;1.55;;;;;;;;;;5020428;28;20060;-79
2023/12/21 09:43:16;;;;;;;;;;;;;;;;;;5023288;28;20082;-79
2023/12/21 09:45:42;;;;;;;2.50;1.40;;;;;;;;;;5034008;28;19917;-77
2023/12/21 09:48:07;;;;;;;2.50;1.40;;;;;;;;;;5023735;28;20523;-77
2023/12/21 09:50:33;;;;;;;;;;;;;;;;;;5015794;28;20037;-78
2023/12/21 09:52:59;;;;;;;3.90;2.17;;;;;;;;;;5033784;28;19983;-78
2023/12/21 09:55:24;;;;;;;;;;;;;;;;;;5021528;28;20076;-78
2023/12/21 09:57:50;;;;;;;2.10;1.40;;;;;;;;;;5032112;28;19932;-78
2023/12/21 10:00:15;;;;;;;2.72;1.40;;;;;;;;;;5028062;28;20135;-78
2023/12/21 10:02:41;;;;;;;2.10;1.48;;;;;;;;;;5032891;28;20044;-78
2023/12/21 10:05:06;;;;;;;2.75;1.35;;;;;;;;;;5033635;28;20124;-78
2023/12/21 10:07:33;;;;;;;;;;;;;;;;;;5032716;28;20039;-78
2023/12/21 10:09:58;;;;;;;3.80;1.70;;;;;;;;;;5033555;28;20360;-79
2023/12/21 10:12:24;;;;;;;;;;;;;;;;;;5022424;28;20079;-78
2023/12/21 10:14:59;;;;;;;2.78;1.60;;;;;;;;;;5032043;28;19913;-78
2023/12/21 10:17:25;;;;;;;2.05;1.25;;;;;;;;;;5030970;28;20047;-78
2023/12/21 10:19:50;;;;;;;2.72;1.10;;;;;;;;;;5026318;28;20029;-79
2023/12/21 10:22:16;;;;;;;;;;;;;;;;;;5024091;28;20041;-79
2023/12/21 10:24:42;;;;;;;2.00;1.52;;;;;;;;;;5033314;28;19913;-78
2023/12/21 10:27:13;;;;;;;1.67;1.00;;;;;;;;;;5030498;28;20037;-79
2023/12/21 10:29:38;;;;;;;2.13;1.05;;;;;;;;;;5033235;28;20083;-79
2023/12/21 10:32:03;;;;;;;;;;;;;;;;;;5033763;28;20029;-77
2023/12/21 10:34:29;;;;;;;2.83;1.27;;;;;;;;;;5033305;28;19974;-77
2023/12/21 10:36:56;;;;;;;2.15;1.35;;;;;;;;;;5031270;28;20049;-78
2023/12/21 10:39:21;;;;;;;2.72;1.40;;;;;;;;;;5012312;28;20050;-78
2023/12/21 10:41:47;;;;;;;;;;;;;;;;;;5015914;28;20361;-79
2023/12/21 10:44:13;;;;;;;2.63;1.50;;;;;;;;;;5018081;28;19909;-78
2023/12/21 10:46:38;;;;;;;3.08;1.50;;;;;;;;;;5031944;28;20119;-78
2023/12/21 10:49:05;;;;;;;3.22;1.83;;;;;;;;;;5005907;28;20037;-77
2023/12/21 10:51:37;;;;;;;2.17;1.20;;;;;;;;;;5027543;28;20033;-78
2023/12/21 10:54:02;;;;;;;3.08;1.10;;;;;;;;;;5022683;28;20033;-78
2023/12/21 10:56:28;;;;;;;;;;;;;;;;;;5031755;28;20029;-79
2023/12/21 10:58:54;;;;;;;1.75;1.20;;;;;;;;;;5032422;28;20372;-78
2023/12/21 11:01:20;;;;;;;1.95;1.10;;;;;;;;;;5032683;28;20029;-78
2023/12/21 11:03:46;;;;;;;1.85;0.98;;;;;;;;;;5031403;28;20035;-78
2023/12/21 11:06:12;;;;;;;2.58;1.17;;;;;;;;;;5032667;28;20036;-78
2023/12/21 11:08:38;;;;;;;2.30;1.33;;;;;;;;;;5030058;28;20041;-78
2023/12/21 11:11:03;;;;;;;;;;;;;;;;;;5032829;28;20457;-78
2023/12/21 11:13:28;;;;;;;4.28;1.90;;;;;;;;;;5045362;28;19913;-76
2023/12/21 11:15:54;;;;;;;4.15;2.05;;;;;;;;;;5029537;28;20627;-78
2023/12/21 11:18:19;;;;;;;;;;;;;;;;;;5029211;28;20144;-77
2023/12/21 11:20:54;;;;;;;2.15;1.40;;;;;;;;;;5031436;28;20299;-79
2023/12/21 11:23:20;;;;;;;3.20;1.60;;;;;;;;;;5030258;28;20048;-78
2023/12/21 11:25:45;;;;;;;;;;;;;;;;;;5031464;28;20029;-78
2023/12/21 11:28:11;;;;;;;2.78;1.52;;;;;;;;;;5030629;28;19967;-78
2023/12/21 11:30:36;;;;;;;2.40;1.60;;;;;;;;;;5030892;28;20025;-78
2023/12/21 11:33:08;;;;;;;2.95;1.65;;;;;;;;;;5029341;28;20032;-77
2023/12/21 11:35:34;;;;;;;4.60;1.90;;;;;;;;;;5017460;28;20141;-78
2023/12/21 11:37:59;;;;;;;7.63;3.42;;;;;;;;;;5029562;28;20120;-78
2023/12/21 11:40:25;;;;;;;;;;;;;;;;;;5013540;28;20037;-79
2023/12/21 11:42:52;;;;;;;4.57;2.95;;;;;;;;;;5015470;28;19943;-78
2023/12/21 11:45:21;;;;;;;7.40;4.07;;;;;;;;;;5026660;28;20404;-79
2023/12/21 11:47:47;;;;;;;4.60;2.97;;;;;;;;;;5029954;28;20120;-79
2023/12/21 11:50:12;;;;;;;;;;;;;;;;;;5032099;28;20568;-78
2023/12/21 11:52:37;;;;;;;3.40;1.98;;;;;;;;;;5013076;28;19933;-78
2023/12/21 11:55:03;;;;;;;;;;;;;;;;;;5023871;28;20026;-78
2023/12/21 11:57:28;;;;;;;3.45;1.90;;;;;;;;;;5031560;28;19963;-78
2023/12/21 12:00:07;;;;;;;4.38;2.30;;;;;;;;;;5011007;28;20088;-78
2023/12/21 12:02:33;;;;;;;3.00;1.77;;;;;;;;;;5029186;28;20042;-78
2023/12/21 12:05:00;;;;;;;2.92;2.03;;;;;;;;;;5031366;28;20025;-78
2023/12/21 12:07:25;;;;;;;;;;;;;;;;;;5028834;28;20476;-78
2023/12/21 12:09:51;;;;;;;3.63;2.10;;;;;;;;;;5031299;28;19916;-78
2023/12/21 12:12:16;;;;;;;4.15;2.45;;;;;;;;;;5031271;28;20037;-78
2023/12/21 12:14:42;;;;;;;5.63;2.33;;;;;;;;;;5031100;28;20049;-78
2023/12/21 12:17:08;;;;;;;3.67;2.25;;;;;;;;;;5011888;28;20026;-78
2023/12/21 12:19:36;;;;;;;4.53;2.78;;;;;;;;;;5022798;28;20393;-76
2023/12/21 12:22:01;;;;;;;6.15;3.30;;;;;;;;;;5029429;28;20470;-78
2023/12/21 12:24:27;;;;;;;;;;;;;;;;;;5031213;28;20116;-78
2023/12/21 12:26:53;;;;;;;4.28;2.70;;;;;;;;;;5031338;28;19913;-78
2023/12/21 12:29:18;;;;;;;4.63;3.10;;;;;;;;;;5020706;28;20101;-78
2023/12/21 12:31:44;;;;;;;5.82;2.65;;;;;;;;;;5029775;28;20033;-78
2023/12/21 12:34:09;;;;;;;;;;;;;;;;;;5031191;28;20032;-78
2023/12/21 12:36:35;;;;;;;4.18;2.15;;;;;;;;;;5026593;28;19920;-77
2023/12/21 12:39:00;;;;;;;6.10;3.42;;;;;;;;;;5029521;28;20392;-77
2023/12/21 12:41:26;;;;;;;;;;;;;;;;;;5029499;28;20034;-78
2023/12/21 12:43:51;;;;;;;4.93;2.75;;;;;;;;;;5020339;28;19913;-78
2023/12/21 12:46:17;;;;;;;3.25;2.28;;;;;;;;;;5027050;28;20680;-79
2023/12/21 12:48:42;;;;;;;;;;;;;;;;;;5026686;28;20086;-76
2023/12/21 12:51:11;;;;;;;4.43;2.20;;;;;;;;;;5028927;28;19920;-79
2023/12/21 12:53:43;;;;;;;3.90;2.30;;;;;;;;;;5029100;28;20030;-79
2023/12/21 12:56:10;;;;;;;4.20;2.40;;;;;;;;;;5012990;28;20037;-79
2023/12/21 12:58:37;;;;;;;3.75;2.40;;;;;;;;;;5026071;28;20033;-77
2023/12/21 13:01:03;;;;;;;4.97;2.95;;;;;;;;;;5008671;28;20045;-79
2023/12/21 13:03:28;;;;;;;;;;;;;;;;;;5025196;28;20029;-78
2023/12/21 13:05:54;;;;;;;4.45;3.05;;;;;;;;;;5044023;28;19913;-79
2023/12/21 13:08:19;;;;;;;5.85;3.03;;;;;;;;;;5025480;28;20353;-79
2023/12/21 13:10:45;;;;;;;;;;;;;;;;;;5030708;28;20029;-77
2023/12/21 13:13:10;;;;;;;7.63;3.63;;;;;;;;;;5059126;28;19909;-78
2023/12/21 13:15:36;;;;;;;9.20;4.43;;;;;;;;;;5009719;28;20038;-78
2023/12/21 13:18:02;;;;;;;8.50;4.10;;;;;;;;;;5025969;28;20384;-78
2023/12/21 13:20:28;;;;;;;8.98;4.57;;;;;;;;;;5026617;28;20041;-78
2023/12/21 13:22:53;;;;;;;;;;;;;;;;;;5029928;28;20029;-78
2023/12/21 13:25:19;;;;;;;6.88;4.22;;;;;;;;;;5030338;28;20726;-79
2023/12/21 13:27:44;;;;;;;8.20;4.32;;;;;;;;;;5030158;28;20057;-77
2023/12/21 13:30:12;;;;;;;8.82;4.90;;;;;;;;;;5030180;28;20025;-77
2023/12/21 13:32:38;;;;;;;9.48;4.25;;;;;;;;;;5030149;28;20035;-78
2023/12/21 13:35:03;;;;;;;;;;;;;;;;;;5023430;28;20082;-78
2023/12/21 13:37:29;;;;;;;8.73;4.50;;;;;;;;;;5018462;28;19964;-77
2023/12/21 13:39:55;;;;;;;;;;;;;;;;;;5026557;28;20049;-78
2023/12/21 13:42:20;;;;;;;8.15;4.35;;;;;;;;;;5024419;28;19909;-77
2023/12/21 13:44:46;;;;;;;8.40;4.20;;;;;;;;;;5016700;28;20140;-77
2023/12/21 13:47:14;;;;;;;8.98;4.70;;;;;;;;;;5028017;28;20095;-78
2023/12/21 13:49:40;;;;;;;10.68;4.78;;;;;;;;;;5029833;28;20056;-79
2023/12/21 13:52:05;;;;;;;;;;;;;;;;;;5016761;28;20022;-77
2023/12/21 13:54:30;;;;;;;9.20;4.90;;;;;;;;;;5033441;28;19913;-78
2023/12/21 13:56:56;;;;;;;8.05;4.20;;;;;;;;;;5033964;28;20033;-79
2023/12/21 13:59:21;;;;;;;7.80;4.32;;;;;;;;;;5032349;28;20040;-79
2023/12/21 14:01:47;;;;;;;8.23;4.65;;;;;;;;;;5013320;28;20057;-78
2023/12/21 14:04:12;;;;;;;;;;;;;;;;;;5033906;28;20041;-78
2023/12/21 14:06:38;;;;;;;8.10;4.47;;;;;;;;;;5052905;28;19915;-78
2023/12/21 14:09:04;;;;;;;7.18;4.47;;;;;;;;;;5013240;28;20030;-78
2023/12/21 14:11:29;;;;;;;;;;;;;;;;;;5032584;28;20025;-78
2023/12/21 14:13:55;;;;;;;8.57;4.93;;;;;;;;;;5033153;28;19916;-78
2023/12/21 14:16:20;;;;;;;7.78;4.40;;;;;;;;;;5029036;28;20025;-78
2023/12/21 14:18:45;;;;;;;;;;;;;;;;;;5028258;28;20396;-78
2023/12/21 14:21:11;;;;;;;8.27;5.43;;;;;;;;;;5031997;28;20000;-78
2023/12/21 14:23:37;;;;;;;;;;;;;;;;;;5032562;28;20140;-78
2023/12/21 14:26:02;;;;;;;8.40;4.88;;;;;;;;;;5028927;28;19913;-78
2023/12/21 14:28:28;;;;;;;7.07;4.70;;;;;;;;;;5024454;28;20493;-78
2023/12/21 14:30:53;;;;;;;9.00;5.45;;;;;;;;;;5024876;28;20037;-79
2023/12/21 14:33:19;;;;;;;6.22;4.65;;;;;;;;;;5031751;28;20088;-78
2023/12/21 14:35:44;;;;;;;6.47;4.50;;;;;;;;;;5026864;28;20049;-78
2023/12/21 14:38:10;;;;;;;7.35;4.75;;;;;;;;;;5033361;28;20082;-78
2023/12/21 14:40:35;;;;;;;;;;;;;;;;;;5026783;28;20045;-78
2023/12/21 14:43:01;;;;;;;6.38;4.32;;;;;;;;;;5025709;28;20664;-78
2023/12/21 14:45:26;;;;;;;7.90;4.35;;;;;;;;;;5030186;28;20025;-78
2023/12/21 14:47:52;;;;;;;6.40;4.82;;;;;;;;;;5028191;28;20045;-80
2023/12/21 14:50:19;;;;;;;;;;;;;;;;;;5026316;28;20118;-78
2023/12/21 14:52:44;;;;;;;9.32;4.97;;;;;;;;;;5024001;28;19919;-78
2023/12/21 14:55:10;;;;;;;8.73;5.40;;;;;;;;;;5030952;28;20021;-78
2023/12/21 14:57:35;;;;;;;;;;;;;;;;;;5026634;28;20036;-78
2023/12/21 15:00:02;;;;;;;6.47;4.72;;;;;;;;;;5029643;28;19909;-79
2023/12/21 15:02:27;;;;;;;7.13;5.03;;;;;;;;;;5014573;28;20064;-79